Time;durP1;ratioP1;P1;durP2;ratioP2;P2;SDS_P1;SDS_P2;PMS_P1;PMS_P2;Temp;Humidity;BMP_temperature;BMP_pressure;BME280_temperature;BME280_humidity;BME280_pressure;Samples;Min_cycle;Max_cycle;Signal;HPM_P1;HPM_P2
2021/12/19 00:00:30;;;;;;;11.38;7.88;;;;;;;6.00;87.77;103576.66;4969496;28;20034;-89
2021/12/19 00:10:53;;;;;;;11.88;7.95;;;;;;;5.99;87.52;103568.03;4989110;28;20648;-90
2021/12/19 00:13:18;;;;;;;12.68;8.07;;;;;;;6.01;87.83;103565.50;4989298;28;20217;-94
2021/12/19 00:15:44;;;;;;;11.82;8.13;;;;;;;5.91;87.71;103554.81;4987257;28;20137;-93
2021/12/19 00:18:09;;;;;;;13.50;8.85;;;;;;;5.97;87.75;103558.47;4988496;28;20089;-92
2021/12/19 00:20:34;;;;;;;12.93;8.98;;;;;;;5.97;87.78;103556.75;4989010;28;20045;-91
2021/12/19 00:23:00;;;;;;;12.45;8.70;;;;;;;5.97;87.77;103559.31;4987868;28;20057;-89
2021/12/19 00:25:25;;;;;;;14.43;8.90;;;;;;;5.97;87.96;103555.88;4990057;28;20050;-91
2021/12/19 00:27:50;;;;;;;13.85;9.30;;;;;;;5.99;87.85;103559.38;4988700;28;20406;-92
2021/12/19 00:30:16;;;;;;;14.18;9.57;;;;;;;5.98;87.85;103561.09;4988349;28;20038;-93
2021/12/19 00:32:41;;;;;;;17.30;10.05;;;;;;;5.99;87.52;103559.38;4988878;28;20030;-91
2021/12/19 00:35:07;;;;;;;16.05;9.85;;;;;;;5.96;87.71;103561.88;4988327;28;20061;-90
2021/12/19 00:37:32;;;;;;;16.35;10.68;;;;;;;5.92;88.14;103551.41;4987624;28;20039;-93
2021/12/19 00:39:58;;;;;;;18.38;11.07;;;;;;;5.91;87.78;103554.81;4989622;28;20030;-92
2021/12/19 00:42:32;;;;;;;18.52;10.90;;;;;;;5.88;88.29;103553.81;4987578;28;20032;-91
2021/12/19 00:45:01;;;;;;;21.17;11.55;;;;;;;5.86;88.14;103545.13;4984816;28;20030;-90
2021/12/19 00:47:27;;;;;;;19.75;12.07;;;;;;;5.83;88.73;103547.59;4987832;28;20030;-91
2021/12/19 00:49:52;;;;;;;19.30;11.20;;;;;;;5.84;88.73;103547.63;4989850;28;20036;-91
2021/12/19 00:52:18;;;;;;;21.98;12.43;;;;;;;5.80;88.90;103538.03;4988921;28;20030;-90
2021/12/19 00:54:43;;;;;;;23.27;14.15;;;;;;;5.76;88.60;103541.31;4988516;28;20476;-92
2021/12/19 00:57:08;;;;;;;23.50;13.82;;;;;;;5.74;88.96;103532.63;4985785;28;20410;-91
2021/12/19 00:59:34;;;;;;;25.75;14.32;;;;;;;5.74;89.30;103542.97;4988202;28;20061;-91
2021/12/19 01:01:59;;;;;;;30.40;15.68;;;;;;;5.72;89.31;103539.44;4987865;28;20694;-92
2021/12/19 01:04:25;;;;;;;31.55;16.52;;;;;;;5.73;89.44;103541.19;4987500;28;20165;-92
2021/12/19 01:06:50;;;;;;;34.28;17.05;;;;;;;5.68;89.52;103532.38;4985975;28;20498;-91
2021/12/19 01:09:16;;;;;;;32.45;17.13;;;;;;;5.70;89.68;103528.16;4987838;28;20038;-89
2021/12/19 01:11:42;;;;;;;33.35;17.05;;;;;;;5.69;89.61;103531.56;4988702;28;20476;-89
2021/12/19 01:14:08;;;;;;;31.30;17.27;;;;;;;5.67;89.85;103531.53;4987891;28;20026;-92
2021/12/19 01:16:34;;;;;;;31.65;16.35;;;;;;;5.65;89.54;103537.44;4988665;28;20149;-90
2021/12/19 01:18:59;;;;;;;31.92;16.58;;;;;;;5.60;89.93;103530.41;4986417;28;20117;-92
2021/12/19 01:21:25;;;;;;;32.20;15.70;;;;;;;5.61;89.42;103532.16;4988047;28;20484;-93
2021/12/19 01:23:50;;;;;;;29.95;15.95;;;;;;;5.60;89.66;103529.50;4987601;28;20473;-91
2021/12/19 01:26:16;;;;;;;29.02;14.98;;;;;;;5.53;89.41;103523.22;4987976;28;20066;-91
2021/12/19 01:28:42;;;;;;;27.58;13.90;;;;;;;5.52;89.90;103521.47;4988009;28;20069;-92
2021/12/19 01:31:08;;;;;;;28.80;14.48;;;;;;;5.53;89.37;103528.41;4986625;28;20188;-90
2021/12/19 01:33:33;;;;;;;29.90;14.27;;;;;;;5.51;89.57;103535.19;4974080;28;20058;-91
2021/12/19 01:35:59;;;;;;;26.73;13.43;;;;;;;5.54;89.60;103527.56;4978876;28;20031;-91
2021/12/19 01:38:25;;;;;;;28.08;13.98;;;;;;;5.56;89.69;103518.19;4975150;28;20061;-90
2021/12/19 01:40:50;;;;;;;31.65;15.48;;;;;;;5.54;89.81;103514.66;4975241;28;20027;-90
2021/12/19 01:43:20;;;;;;;32.92;15.40;;;;;;;5.55;89.68;103510.41;4976941;28;20046;-90
2021/12/19 01:45:46;;;;;;;34.20;16.00;;;;;;;5.51;89.98;103511.97;4960700;28;20088;-91
2021/12/19 01:48:12;;;;;;;33.50;15.15;;;;;;;5.51;90.16;103511.09;4959178;28;20031;-90
2021/12/19 01:50:39;;;;;;;32.42;15.13;;;;;;;5.52;89.84;103505.97;4976495;28;20038;-91
2021/12/19 01:53:07;;;;;;;34.78;15.95;;;;;;;5.51;89.87;103508.50;4976643;28;20486;-91
2021/12/19 01:55:33;;;;;;;34.47;15.40;;;;;;;5.47;90.31;103503.22;4977316;28;20129;-91
2021/12/19 01:57:58;;;;;;;36.60;16.77;;;;;;;5.48;90.44;103509.25;4974629;28;20034;-91
2021/12/19 02:00:34;;;;;;;38.35;17.38;;;;;;;5.47;90.33;103508.38;4975453;28;20034;-91
2021/12/19 02:03:00;;;;;;;36.15;16.77;;;;;;;5.46;90.33;103503.19;4976516;28;20038;-89
2021/12/19 02:05:27;;;;;;;39.72;16.73;;;;;;;5.46;90.57;103510.91;4975313;28;20023;-91
2021/12/19 02:07:54;;;;;;;42.80;17.92;;;;;;;5.44;91.10;103504.81;4958240;28;20054;-90
2021/12/19 02:10:27;;;;;;;40.88;17.00;;;;;;;5.38;90.94;103497.69;4984459;28;20041;-91
2021/12/19 02:12:54;;;;;;;39.60;16.85;;;;;;;5.40;90.49;103500.34;4978409;28;20439;-91
2021/12/19 02:15:24;;;;;;;38.25;16.70;;;;;;;5.34;90.62;103490.66;4975429;28;20044;-91
2021/12/19 02:17:52;;;;;;;32.58;14.43;;;;;;;5.32;90.60;103498.31;4975234;28;20034;-91
2021/12/19 02:20:19;;;;;;;28.05;13.15;;;;;;;5.26;89.96;103485.19;4976326;28;20108;-90
2021/12/19 02:22:44;;;;;;;34.03;15.10;;;;;;;5.34;90.35;103505.25;4977594;28;20106;-92
2021/12/19 02:25:10;;;;;;;31.87;15.07;;;;;;;5.23;90.35;103492.81;4974943;28;20170;-91
2021/12/19 02:27:36;;;;;;;33.10;15.48;;;;;;;5.26;89.95;103498.09;4975154;28;20336;-90
2021/12/19 02:30:05;;;;;;;32.70;15.70;;;;;;;5.19;90.20;103485.78;4975031;28;20034;-92
2021/12/19 02:32:31;;;;;;;33.13;16.05;;;;;;;5.19;90.32;103485.78;4973994;28;20054;-91
2021/12/19 02:35:00;;;;;;;32.45;16.05;;;;;;;5.17;90.17;103487.41;4958545;28;20042;-90
2021/12/19 02:50:57;;;;;;;36.40;17.97;;;;;;;5.10;90.26;103462.19;4912630;29;20157;-91
2021/12/19 02:53:29;;;;;;;42.80;18.40;;;;;;;5.12;90.32;103479.50;4913207;29;20393;-91
2021/12/19 02:55:55;;;;;;;35.78;18.30;;;;;;;5.09;90.31;103473.34;4945980;28;20077;-91
2021/12/19 02:58:20;;;;;;;38.38;18.90;;;;;;;5.06;90.62;103466.31;4974218;28;20491;-91
2021/12/19 03:00:45;;;;;;;37.73;19.07;;;;;;;5.07;90.55;103469.81;4974014;28;20034;-91
2021/12/19 03:03:11;;;;;;;49.67;19.75;;;;;;;4.98;90.47;103465.16;4973089;28;20030;-91
2021/12/19 03:05:37;;;;;;;49.33;21.10;;;;;;;4.95;90.69;103455.56;4973810;28;20034;-91
2021/12/19 03:08:03;;;;;;;45.70;21.90;;;;;;;4.94;90.90;103461.59;4973545;28;20464;-91
2021/12/19 03:18:42;;;;;;;54.63;24.10;;;;;;;4.88;91.25;103452.69;4974508;28;20090;-91
2021/12/19 03:21:12;;;;;;;49.43;23.57;;;;;;;4.86;91.13;103456.13;4973007;28;20031;-91
2021/12/19 03:23:38;;;;;;;47.38;22.15;;;;;;;4.82;90.80;103445.59;4955541;28;20046;-91
2021/12/19 03:26:03;;;;;;;48.53;23.47;;;;;;;4.81;90.98;103441.25;4972914;28;20476;-90
2021/12/19 03:28:29;;;;;;;51.67;23.43;;;;;;;4.86;91.00;103442.31;4973738;28;20041;-90
2021/12/19 03:30:54;;;;;;;49.45;23.17;;;;;;;4.86;91.22;103444.91;4974609;28;20027;-90
2021/12/19 03:33:20;;;;;;;52.57;23.47;;;;;;;4.85;91.44;103440.56;4972635;28;20043;-91
2021/12/19 03:35:46;;;;;;;52.70;23.80;;;;;;;4.89;91.09;103438.97;4972982;28;20027;-91
2021/12/19 03:38:14;;;;;;;52.93;22.80;;;;;;;4.86;91.11;103444.91;4976916;28;20525;-90
2021/12/19 03:40:44;;;;;;;51.67;22.73;;;;;;;4.87;91.31;103436.34;4972804;28;20030;-91
2021/12/19 03:43:18;;;;;;;56.63;23.60;;;;;;;4.85;91.18;103427.66;4955315;28;20035;-90
2021/12/19 03:45:45;;;;;;;58.97;23.37;;;;;;;4.88;91.11;103427.78;4972804;28;20034;-91
2021/12/19 03:48:12;;;;;;;58.00;24.77;;;;;;;4.91;91.60;103425.34;4975908;28;20043;-91
2021/12/19 03:50:42;;;;;;;58.88;23.17;;;;;;;4.88;91.65;103421.75;4972688;28;20427;-91
2021/12/19 03:53:08;;;;;;;62.70;23.50;;;;;;;4.90;91.29;103418.44;4972700;28;20023;-90
2021/12/19 03:55:33;;;;;;;62.53;24.40;;;;;;;4.89;91.56;103428.66;4972905;28;20035;-90
2021/12/19 03:57:59;;;;;;;57.15;24.45;;;;;;;4.93;91.55;103426.28;4974387;28;20031;-91
2021/12/19 04:00:27;;;;;;;61.70;24.60;;;;;;;4.93;91.27;103415.97;4972497;28;20468;-90
2021/12/19 04:02:55;;;;;;;60.73;25.27;;;;;;;4.94;91.42;103414.25;4973403;28;20145;-91
2021/12/19 04:05:20;;;;;;;59.57;24.30;;;;;;;4.88;91.19;103402.00;4973014;28;20096;-91
2021/12/19 04:07:45;;;;;;;56.23;24.43;;;;;;;4.96;91.36;103415.19;4974133;28;20489;-90
2021/12/19 04:10:11;;;;;;;50.37;22.10;;;;;;;4.96;91.17;103413.47;4954851;28;20031;-90
2021/12/19 04:12:37;;;;;;;33.00;15.95;;;;;;;4.92;91.05;103403.00;4972772;28;20484;-92
2021/12/19 04:15:04;;;;;;;32.13;14.87;;;;;;;4.84;90.53;103403.59;4977971;28;20034;-91
2021/12/19 04:17:29;;;;;;;25.10;12.60;;;;;;;4.80;90.51;103390.47;4977079;28;20031;-91
2021/12/19 04:19:54;;;;;;;17.20;8.50;;;;;;;4.77;89.89;103392.97;4972568;28;20034;-90
2021/12/19 04:22:19;;;;;;;17.23;8.07;;;;;;;4.70;90.13;103379.81;4972321;28;20034;-91
2021/12/19 04:24:45;;;;;;;14.63;7.90;;;;;;;4.71;89.60;103389.31;4957261;28;20035;-91
2021/12/19 04:27:10;;;;;;;17.30;8.47;;;;;;;4.70;89.71;103382.41;4982738;28;20097;-91
2021/12/19 04:29:35;;;;;;;16.60;8.43;;;;;;;4.70;89.31;103377.25;4958532;28;20023;-91
2021/12/19 04:32:01;;;;;;;18.23;8.20;;;;;;;4.74;90.05;103372.22;4975726;28;20500;-91
2021/12/19 04:34:26;;;;;;;16.95;8.23;;;;;;;4.71;89.48;103367.78;4978761;28;20047;-91
2021/12/19 04:36:59;;;;;;;17.07;8.50;;;;;;;4.64;89.39;103351.19;4978871;28;20050;-90
2021/12/19 04:39:37;;;;;;;16.15;8.15;;;;;;;4.75;89.52;103359.38;4958743;28;20101;-91
2021/12/19 04:42:54;;;;;;;17.00;9.10;;;;;;;4.78;89.66;103345.72;4964746;28;20114;-91
2021/12/19 05:00:54;;;;;;;8.90;4.80;;;;;;;4.85;88.71;103340.88;4975625;28;20034;-91
2021/12/19 05:03:46;;;;;;;9.23;4.80;;;;;;;4.85;88.99;103335.72;4985974;28;20033;-92
2021/12/19 05:14:30;;;;;;;12.27;5.30;;;;;;;4.94;88.52;103344.59;4976371;28;20451;-92
2021/12/19 05:17:03;;;;;;;10.70;5.15;;;;;;;4.88;88.39;103337.50;4959391;28;20033;-91
2021/12/19 05:19:43;;;;;;;9.87;5.10;;;;;;;4.88;88.46;103340.09;4983155;28;20053;-91
2021/12/19 05:22:08;;;;;;;9.00;4.80;;;;;;;4.87;88.62;103346.06;4980272;28;20105;-91
2021/12/19 05:27:03;;;;;;;9.68;4.53;;;;;;;4.82;88.84;103337.25;4974760;28;20026;-91
2021/12/19 05:29:31;;;;;;;9.07;4.32;;;;;;;4.80;89.02;103336.31;4975715;28;20027;-91
2021/12/19 05:31:56;;;;;;;9.10;4.45;;;;;;;4.77;88.86;103341.38;4975058;28;20027;-91
2021/12/19 05:34:21;;;;;;;9.50;4.22;;;;;;;4.82;89.16;103345.00;4974789;28;20041;-91
2021/12/19 05:47:23;;;;;;;10.17;4.40;;;;;;;4.76;89.24;103313.84;4974637;28;20121;-90
2021/12/19 05:49:49;;;;;;;11.10;5.07;;;;;;;4.79;89.31;103319.09;4976188;28;20384;-92
2021/12/19 05:52:14;;;;;;;12.18;4.90;;;;;;;4.81;89.44;103317.44;4975030;28;20105;-92
2021/12/19 05:54:40;;;;;;;13.25;5.22;;;;;;;4.84;89.50;103312.41;4974473;28;20395;-93
2021/12/19 05:57:05;;;;;;;11.50;5.40;;;;;;;4.86;89.81;103316.84;4957147;28;20494;-91
2021/12/19 05:59:30;;;;;;;12.17;5.20;;;;;;;4.88;89.47;103328.88;4958552;28;20027;-91
2021/12/19 06:01:55;;;;;;;12.98;5.50;;;;;;;4.85;89.47;103327.06;4975926;28;20031;-91
2021/12/19 06:04:21;;;;;;;11.67;5.10;;;;;;;4.85;89.53;103325.41;4974276;28;20031;-92
2021/12/19 06:06:46;;;;;;;11.90;5.27;;;;;;;4.86;89.98;103315.94;4974050;28;20026;-91
2021/12/19 06:09:12;;;;;;;13.33;5.23;;;;;;;4.88;90.04;103308.25;4974920;28;20030;-91
2021/12/19 06:11:37;;;;;;;11.47;5.30;;;;;;;4.89;90.05;103302.28;4959889;28;20114;-91
2021/12/19 06:14:03;;;;;;;12.20;5.57;;;;;;;4.91;90.05;103314.44;4975169;28;20538;-91
2021/12/19 06:16:29;;;;;;;12.17;6.00;;;;;;;4.91;90.10;103311.84;4973370;28;20562;-92
2021/12/19 06:18:54;;;;;;;11.38;5.75;;;;;;;4.92;89.56;103326.50;4973888;28;20037;-92
2021/12/19 06:21:19;;;;;;;13.45;5.72;;;;;;;4.89;89.95;103312.59;4974420;28;20030;-92
2021/12/19 06:23:45;;;;;;;12.10;5.53;;;;;;;4.91;89.95;103323.84;4973893;28;20043;-92
2021/12/19 06:26:11;;;;;;;13.35;5.63;;;;;;;4.90;89.87;103310.09;4959121;28;20045;-92
2021/12/19 06:28:37;;;;;;;13.00;6.15;;;;;;;4.92;89.70;103310.13;4957244;28;20037;-92
2021/12/19 06:31:03;;;;;;;11.17;5.60;;;;;;;4.91;89.85;103306.69;4974748;28;20030;-93
2021/12/19 06:33:28;;;;;;;11.88;5.85;;;;;;;4.93;90.02;103292.16;4982063;28;20042;-90
2021/12/19 06:35:54;;;;;;;14.38;5.70;;;;;;;4.95;89.96;103295.63;4960110;28;20030;-91
2021/12/19 06:38:19;;;;;;;12.18;5.72;;;;;;;4.95;90.15;103289.63;4973505;28;20090;-92
2021/12/19 06:40:44;;;;;;;16.58;5.40;;;;;;;4.96;90.26;103291.38;4961664;28;20061;-92
2021/12/19 06:43:10;;;;;;;12.93;5.57;;;;;;;4.92;90.48;103286.91;4973273;28;20062;-92
2021/12/19 06:45:35;;;;;;;11.05;5.28;;;;;;;4.93;90.00;103287.00;4975075;28;20062;-92
2021/12/19 06:48:01;;;;;;;11.40;5.53;;;;;;;4.89;90.00;103274.78;4974390;28;20038;-91
2021/12/19 06:50:26;;;;;;;14.38;5.85;;;;;;;4.93;90.24;103276.66;4975906;28;20041;-92
2021/12/19 06:52:52;;;;;;;13.43;5.90;;;;;;;4.92;90.70;103274.00;4956422;28;20496;-91
2021/12/19 06:55:17;;;;;;;12.13;5.73;;;;;;;4.95;90.83;103267.25;4956021;28;20042;-92
2021/12/19 06:57:43;;;;;;;15.35;6.10;;;;;;;4.97;90.76;103265.63;4975752;28;20443;-91
2021/12/19 07:00:14;;;;;;;12.68;5.55;;;;;;;5.00;90.58;103270.03;4972867;28;20121;-91
2021/12/19 07:02:40;;;;;;;12.82;5.75;;;;;;;5.00;90.64;103273.47;4975185;28;20035;-91
2021/12/19 07:05:06;;;;;;;13.00;5.88;;;;;;;4.97;90.48;103262.19;4975397;28;20055;-92
2021/12/19 07:07:31;;;;;;;11.65;5.60;;;;;;;5.02;90.67;103265.81;4975413;28;20058;-92
2021/12/19 07:09:58;;;;;;;12.38;5.85;;;;;;;5.03;90.64;103262.41;4977658;28;20069;-91
2021/12/19 07:12:27;;;;;;;11.82;6.03;;;;;;;4.99;90.75;103263.13;4973331;28;20034;-92
2021/12/19 07:14:56;;;;;;;10.70;5.20;;;;;;;4.99;90.94;103266.56;4974365;28;20264;-91
2021/12/19 07:17:22;;;;;;;13.45;6.07;;;;;;;5.03;90.42;103266.69;4967302;28;20026;-92
2021/12/19 07:19:48;;;;;;;10.75;5.60;;;;;;;4.98;90.80;103259.63;4976479;28;20166;-92
2021/12/19 07:22:13;;;;;;;13.32;6.57;;;;;;;4.98;90.97;103269.97;4957764;28;20067;-91
2021/12/19 07:24:39;;;;;;;14.82;6.43;;;;;;;4.96;90.75;103260.41;4955956;28;20023;-92
2021/12/19 07:27:04;;;;;;;13.43;6.57;;;;;;;4.97;91.25;103265.63;4975224;28;20041;-91
2021/12/19 07:29:31;;;;;;;12.30;5.97;;;;;;;4.97;91.01;103257.88;4978017;28;20034;-91
2021/12/19 07:31:57;;;;;;;13.40;6.57;;;;;;;4.99;91.09;103268.28;4975550;28;20047;-91
2021/12/19 07:34:29;;;;;;;14.80;6.68;;;;;;;5.00;91.41;103259.72;4974816;28;20507;-91
2021/12/19 07:36:54;;;;;;;13.52;6.65;;;;;;;4.98;91.60;103258.78;4957418;28;20035;-91
2021/12/19 07:39:38;;;;;;;14.13;7.43;;;;;;;4.95;91.46;103244.03;4974309;28;20033;-92
2021/12/19 07:42:07;;;;;;;13.27;6.90;;;;;;;5.00;91.71;103241.66;4973920;28;20073;-91
2021/12/19 07:44:34;;;;;;;15.10;7.37;;;;;;;4.97;91.85;103241.53;4972305;28;20476;-91
2021/12/19 07:46:59;;;;;;;16.02;8.10;;;;;;;5.04;91.91;103243.50;4974818;28;20034;-91
2021/12/19 07:49:25;;;;;;;14.77;7.70;;;;;;;5.05;91.59;103241.81;4974526;28;20074;-94
2021/12/19 07:51:50;;;;;;;14.75;7.35;;;;;;;5.05;92.04;103239.22;4975374;28;20034;-92
2021/12/19 07:54:16;;;;;;;15.77;7.80;;;;;;;5.05;91.86;103239.22;4973258;28;20082;-91
2021/12/19 07:56:41;;;;;;;17.57;8.33;;;;;;;5.09;91.90;103241.97;4975124;28;20115;-91
2021/12/19 07:59:06;;;;;;;16.17;8.13;;;;;;;5.09;91.93;103235.94;4976939;28;20034;-91
2021/12/19 08:01:32;;;;;;;15.98;8.60;;;;;;;5.08;91.81;103229.03;4978398;28;20033;-92
2021/12/19 08:03:58;;;;;;;15.40;8.88;;;;;;;5.13;92.20;103230.94;4976463;28;20022;-91
2021/12/19 08:06:23;;;;;;;14.82;8.23;;;;;;;5.21;92.31;103244.13;4968310;28;20349;-91
2021/12/19 08:08:52;;;;;;;18.30;9.05;;;;;;;5.21;91.92;103227.78;4962750;28;20034;-92
2021/12/19 08:14:02;;;;;;;15.17;9.03;;;;;;;5.28;91.92;103228.03;4976735;28;20602;-91
2021/12/19 08:16:27;;;;;;;17.80;9.25;;;;;;;5.28;91.77;103219.41;4959364;28;20023;-92
2021/12/19 08:18:53;;;;;;;16.38;9.30;;;;;;;5.29;91.92;103227.22;4976111;28;20482;-92
2021/12/19 08:21:19;;;;;;;16.55;9.45;;;;;;;5.30;91.81;103226.38;4962314;28;20031;-91
2021/12/19 08:23:44;;;;;;;16.90;9.48;;;;;;;5.31;91.97;103222.97;4960285;28;20392;-92
2021/12/19 08:26:10;;;;;;;18.63;9.40;;;;;;;5.32;92.07;103232.47;4976156;28;20089;-92
2021/12/19 08:28:35;;;;;;;19.10;10.35;;;;;;;5.31;92.16;103228.13;4978286;28;20062;-91
2021/12/19 08:31:00;;;;;;;17.60;9.73;;;;;;;5.30;92.05;103230.66;4962731;28;20545;-91
2021/12/19 08:33:26;;;;;;;18.58;9.70;;;;;;;5.32;92.01;103229.88;4977200;28;20047;-91
2021/12/19 08:35:51;;;;;;;18.17;9.93;;;;;;;5.37;92.37;103234.34;4962689;28;20022;-91
2021/12/19 08:38:16;;;;;;;19.38;10.50;;;;;;;5.39;92.17;103230.09;4975724;28;20042;-91
2021/12/19 08:40:44;;;;;;;22.60;10.68;;;;;;;5.39;92.32;103224.94;4982213;28;20026;-91
2021/12/19 08:43:09;;;;;;;19.08;10.85;;;;;;;5.40;92.17;103230.16;4975717;28;20018;-92
2021/12/19 08:45:35;;;;;;;22.85;11.05;;;;;;;5.34;92.26;103210.97;4976411;28;20026;-92
2021/12/19 08:48:00;;;;;;;20.30;11.63;;;;;;;5.43;92.70;103217.34;4975634;28;20029;-92
2021/12/19 08:50:26;;;;;;;21.05;10.65;;;;;;;5.38;92.79;103216.31;4979726;28;20023;-90
2021/12/19 08:52:52;;;;;;;18.30;9.85;;;;;;;5.45;92.55;103220.00;4982724;28;20021;-91
2021/12/19 08:55:19;;;;;;;20.23;11.00;;;;;;;5.40;92.54;103211.22;4966710;28;20037;-92
2021/12/19 08:57:44;;;;;;;18.38;10.48;;;;;;;5.45;92.75;103217.41;4978417;28;20039;-92
2021/12/19 09:00:11;;;;;;;17.67;9.40;;;;;;;5.46;92.46;103221.75;4980327;28;20032;-92
2021/12/19 09:02:45;;;;;;;17.58;9.90;;;;;;;5.44;92.43;103213.94;4975383;28;20032;-92
2021/12/19 09:05:11;;;;;;;16.63;8.80;;;;;;;5.48;92.29;103220.06;4976206;28;20543;-91
2021/12/19 09:07:39;;;;;;;16.50;9.23;;;;;;;5.48;92.91;103217.50;4976909;28;20032;-91
2021/12/19 09:10:06;;;;;;;18.20;9.30;;;;;;;5.49;92.54;103216.66;4977105;28;20034;-92
2021/12/19 09:12:31;;;;;;;15.75;8.70;;;;;;;5.49;92.71;103211.50;4978832;28;20023;-92
2021/12/19 09:14:57;;;;;;;15.18;8.48;;;;;;;5.49;92.60;103211.50;4982303;28;20506;-92
2021/12/19 09:17:22;;;;;;;15.70;8.32;;;;;;;5.49;92.78;103206.34;4988582;28;20060;-92
2021/12/19 09:19:48;;;;;;;16.73;8.73;;;;;;;5.51;92.77;103209.84;4984218;28;20029;-91
2021/12/19 09:22:13;;;;;;;14.88;8.73;;;;;;;5.54;93.01;103214.25;4980069;28;20023;-93
2021/12/19 09:24:39;;;;;;;14.55;8.45;;;;;;;5.54;92.80;103209.09;4959028;28;20026;-93
2021/12/19 09:27:07;;;;;;;14.30;8.18;;;;;;;5.55;92.32;103214.31;4982321;28;20031;-91
2021/12/19 09:29:33;;;;;;;15.23;7.55;;;;;;;5.61;92.42;103203.28;4974825;28;20026;-91
2021/12/19 09:31:59;;;;;;;12.45;7.35;;;;;;;5.62;92.61;103195.63;4959383;28;20034;-92
2021/12/19 09:34:28;;;;;;;13.55;8.05;;;;;;;5.66;92.29;103212.09;4973941;28;20094;-92
2021/12/19 09:36:55;;;;;;;13.65;6.93;;;;;;;5.65;92.38;103206.84;4975086;28;20475;-92
2021/12/19 09:39:21;;;;;;;12.65;6.90;;;;;;;5.70;91.85;103210.47;4975802;28;20078;-92
2021/12/19 09:41:46;;;;;;;10.07;6.00;;;;;;;5.71;91.32;103202.78;4975244;28;20022;-92
2021/12/19 09:44:15;;;;;;;8.90;5.80;;;;;;;5.73;91.17;103200.25;4957754;28;20191;-93
2021/12/19 09:46:42;;;;;;;10.02;5.75;;;;;;;5.72;90.36;103209.69;4956336;28;20084;-92
2021/12/19 09:49:09;;;;;;;10.65;6.00;;;;;;;5.74;91.02;103208.03;4968301;28;20062;-93
2021/12/19 09:51:35;;;;;;;7.97;5.05;;;;;;;5.74;90.71;103202.00;4980938;28;20038;-92
2021/12/19 09:54:00;;;;;;;9.68;5.18;;;;;;;5.79;90.86;103208.22;4977278;28;20502;-92
2021/12/19 09:56:26;;;;;;;8.85;4.80;;;;;;;5.78;90.73;103209.03;4980623;28;20034;-91
2021/12/19 09:58:53;;;;;;;7.90;4.35;;;;;;;5.82;90.81;103210.88;4979241;28;20108;-92
2021/12/19 10:01:18;;;;;;;3.65;2.10;;;;;;;5.81;89.15;103209.09;4978656;28;20022;-91
2021/12/19 10:03:44;;;;;;;2.70;1.65;;;;;;;5.84;89.55;103214.38;4975164;28;20030;-91
2021/12/19 10:06:13;;;;;;;2.97;1.75;;;;;;;5.88;89.92;103210.22;4979625;28;20030;-92
2021/12/19 10:08:39;;;;;;;3.35;1.60;;;;;;;5.90;89.87;103201.66;4974605;28;20095;-90
2021/12/19 10:11:13;;;;;;;3.20;1.98;;;;;;;5.92;89.65;103207.78;4973547;28;20022;-91
2021/12/19 10:13:38;;;;;;;4.53;2.00;;;;;;;5.97;89.15;103204.47;4976031;28;20444;-92
2021/12/19 10:16:25;;;;;;;3.30;1.88;;;;;;;6.00;89.33;103196.81;4979769;28;20036;-92
2021/12/19 10:18:53;;;;;;;3.95;2.08;;;;;;;6.05;89.33;103197.84;4978925;28;20049;-93
2021/12/19 10:21:19;;;;;;;4.13;2.40;;;;;;;6.08;89.54;103197.94;4975966;28;20392;-92
2021/12/19 10:23:45;;;;;;;3.83;2.10;;;;;;;6.06;89.44;103181.50;4973003;28;20031;-91
2021/12/19 10:26:11;;;;;;;4.05;2.30;;;;;;;6.10;88.86;103188.53;4978710;28;20026;-92
2021/12/19 10:28:53;;;;;;;3.67;2.15;;;;;;;6.15;88.95;103179.19;4990359;28;20109;-89
2021/12/19 10:31:18;;;;;;;3.50;1.98;;;;;;;6.18;88.76;103179.28;4973744;28;20062;-91
2021/12/19 10:33:45;;;;;;;4.35;2.15;;;;;;;6.17;89.30;103174.09;4940460;28;1022394;-92
2021/12/19 10:36:10;;;;;;;3.63;2.15;;;;;;;6.19;89.13;103173.28;4977966;28;20427;-91
2021/12/19 10:38:41;;;;;;;3.78;1.92;;;;;;;6.18;88.46;103176.72;4986340;28;20117;-94
2021/12/19 10:41:21;;;;;;;2.97;1.80;;;;;;;6.16;88.16;103170.63;4984598;28;20029;-90
2021/12/19 10:44:02;;;;;;;3.35;1.70;;;;;;;6.14;87.88;103167.13;4983442;28;20034;-92
2021/12/19 10:46:34;;;;;;;3.85;1.80;;;;;;;6.14;87.89;103163.66;4966699;28;20034;-90
2021/12/19 10:49:01;;;;;;;2.30;1.50;;;;;;;6.18;88.11;103163.78;4985608;28;20560;-91
2021/12/19 10:51:29;;;;;;;2.40;1.10;;;;;;;6.16;87.17;103162.84;4987184;28;20578;-91
2021/12/19 10:53:57;;;;;;;2.28;1.13;;;;;;;6.17;87.35;103163.75;4984745;28;21869;-91
2021/12/19 10:56:31;;;;;;;2.65;1.20;;;;;;;6.14;86.32;103161.97;4983944;28;20109;-92
2021/12/19 10:59:02;;;;;;;1.83;1.30;;;;;;;6.09;87.12;103148.03;4986301;28;20034;-92
2021/12/19 11:01:31;;;;;;;2.07;1.43;;;;;;;6.17;87.04;103146.53;4985611;28;20633;-91
2021/12/19 11:04:21;;;;;;;1.90;1.35;;;;;;;6.25;86.88;103138.13;4986095;28;20041;-91
2021/12/19 11:06:53;;;;;;;2.00;1.40;;;;;;;6.21;86.94;103137.19;4986281;28;20033;-90
2021/12/19 11:09:28;;;;;;;1.98;1.40;;;;;;;6.20;86.86;103127.66;4985810;28;20133;-93
2021/12/19 11:12:12;;;;;;;2.13;1.35;;;;;;;6.22;87.15;103132.03;4984213;28;20069;-93
2021/12/19 11:14:39;;;;;;;2.60;1.50;;;;;;;6.17;87.13;103125.84;4982177;28;20121;-91
2021/12/19 11:17:16;;;;;;;1.88;1.45;;;;;;;6.18;87.12;103117.25;4979495;28;20032;-90
2021/12/19 11:19:42;;;;;;;1.88;1.42;;;;;;;6.19;87.38;103113.84;4979642;28;20080;-90
2021/12/19 11:22:10;;;;;;;2.92;1.45;;;;;;;6.25;87.28;103104.53;4981042;28;20045;-92
2021/12/19 11:24:35;;;;;;;1.92;1.45;;;;;;;6.28;87.23;103105.47;4961592;28;20368;-92
2021/12/19 11:27:04;;;;;;;1.73;1.27;;;;;;;6.35;87.38;103099.66;4984732;28;20030;-92
2021/12/19 11:29:29;;;;;;;2.20;1.27;;;;;;;6.40;86.66;103093.75;4984605;28;20557;-93
2021/12/19 11:31:59;;;;;;;1.90;1.40;;;;;;;6.38;86.87;103091.13;4984590;28;20038;-92
2021/12/19 11:34:43;;;;;;;1.70;1.20;;;;;;;6.48;86.70;103089.66;4984630;28;20070;-92
2021/12/19 11:37:15;;;;;;;2.38;1.20;;;;;;;6.38;86.37;103083.34;4987556;28;20069;-93
2021/12/19 11:39:46;;;;;;;2.47;1.40;;;;;;;6.34;86.98;103087.56;4987085;28;20101;-94
2021/12/19 11:42:17;;;;;;;1.60;1.35;;;;;;;6.35;87.10;103083.25;4988961;28;20163;-89
2021/12/19 11:44:53;;;;;;;2.65;1.40;;;;;;;6.33;86.77;103075.47;4989030;28;20078;-89
2021/12/19 11:47:51;;;;;;;2.17;1.10;;;;;;;6.40;86.56;103083.41;4991440;28;20029;-89
2021/12/19 11:50:28;;;;;;;3.80;1.50;;;;;;;6.33;86.13;103079.75;4988143;28;20129;-86
2021/12/19 11:52:56;;;;;;;2.72;1.45;;;;;;;6.21;85.91;103076.00;4966473;28;20034;-88
2021/12/19 11:55:22;;;;;;;3.15;1.50;;;;;;;6.19;86.35;103072.50;4987364;28;20165;-87
2021/12/19 11:58:06;;;;;;;3.50;2.00;;;;;;;6.26;86.66;103080.44;4989770;28;20030;-88
2021/12/19 12:00:38;;;;;;;2.63;1.70;;;;;;;6.22;87.21;103067.41;4989300;28;20026;-88
2021/12/19 12:03:21;;;;;;;4.25;1.70;;;;;;;6.20;86.59;103053.56;4990533;28;20039;-90
2021/12/19 12:05:58;;;;;;;2.72;1.80;;;;;;;6.25;87.02;103060.59;4989918;28;20514;-90
2021/12/19 12:08:26;;;;;;;3.15;1.60;;;;;;;6.20;87.17;103056.16;4988445;28;20030;-90
2021/12/19 12:10:55;;;;;;;4.90;1.80;;;;;;;6.26;87.31;103047.69;4988827;28;20041;-90
2021/12/19 12:13:41;;;;;;;2.30;1.65;;;;;;;6.31;87.38;103050.44;4989201;28;20080;-91
2021/12/19 12:16:14;;;;;;;3.80;2.15;;;;;;;6.33;86.47;103053.91;4967020;28;20069;-90
2021/12/19 12:18:41;;;;;;;3.70;1.92;;;;;;;6.33;86.28;103040.97;4988045;28;20126;-88
2021/12/19 12:21:20;;;;;;;3.53;1.75;;;;;;;6.32;87.46;103042.69;4988809;28;20398;-89
2021/12/19 12:23:58;;;;;;;3.20;1.65;;;;;;;6.34;87.55;103041.03;4988196;28;20918;-90
2021/12/19 12:27:05;;;;;;;2.85;1.83;;;;;;;6.37;87.59;103045.41;4966427;28;20468;-89
2021/12/19 12:29:31;;;;;;;3.13;1.75;;;;;;;6.28;87.36;103050.34;4892985;29;20051;-89
2021/12/19 12:31:57;;;;;;;3.35;2.05;;;;;;;6.22;86.85;103041.56;4972680;28;20134;-90
2021/12/19 12:34:22;;;;;;;3.95;2.20;;;;;;;6.25;87.42;103039.91;4987574;28;20391;-90
2021/12/19 12:36:48;;;;;;;3.58;2.20;;;;;;;6.20;86.94;103038.06;4988241;28;20061;-93